Latest Weather Observations for Kingaroy

IDQ60801

Issued at 8:52 am EST Wednesday 26 September 2018 (issued every 10 minutes, with the page automatically refreshed every 10 minutes)

About weather observations | Map of weather stations | Latest weather observations for QLD | Other Formats
Station Details ID: 040922 Name: KINGAROY AIRPORT Lat: -26.57 Lon: 151.84 Height: 433.67 m
Data from the previous 72 hours. | See also: Recent months at Kingaroy
Date/Time
EST
Temp
°C
App
Temp
°C
Dew
Point
°C
Rel
Hum
%
Delta-T
°C
Wind Press
QNH
hPa
Press
MSL
hPa
Rain since
9am
mm
Dir  Spd
km/h
Gust
km/h
Spd
kts
Gust
kts
26/08:30am 14.8 14.1 13.3 91 0.9 ENE 9 13 5 7 1023.2 1022.3 -
26/08:00am 13.7 13.4 13.4 98 0.2 ESE 7 11 4 6 1023.3 1022.4 -
26/07:30am 12.8 12.3 12.6 99 0.1 E 7 13 4 7 1022.9 1022.0 -
26/07:00am 12.6 12.6 12.4 99 0.1 E 4 6 2 3 1022.6 1021.6 -
26/06:58am 12.7 12.7 12.5 99 0.1 ESE 4 7 2 4 1022.6 1021.6 -
26/06:30am 11.4 11.4 11.2 99 0.1 ENE 2 7 1 4 1022.4 1021.4 -
26/06:00am 11.0 9.9 10.8 99 0.1 SE 7 13 4 7 1022.1 1021.1 -
26/05:30am 9.9 9.9 9.8 99 0.1 CALM 0 0 0 0 1021.8 1020.8 -
26/05:00am 9.7 8.5 9.6 99 0.1 SSE 6 9 3 5 1021.6 1020.6 -
26/04:39am 9.9 8.8 9.8 99 0.1 SSE 6 7 3 4 1021.4 1020.4 -
26/04:35am 9.9 8.8 9.8 99 0.1 SSE 6 9 3 5 1021.4 1020.4 -
26/04:30am 10.0 8.7 9.9 99 0.1 SSE 7 9 4 5 1021.4 1020.4 -
26/04:00am 10.6 9.1 10.4 99 0.1 S 9 11 5 6 1021.3 1020.3 -
26/03:30am 9.7 8.3 9.6 99 0.1 S 7 9 4 5 1021.4 1020.4 -
26/03:20am 10.0 8.9 9.9 99 0.1 SW 6 7 3 4 1021.3 1020.3 -
26/03:00am 10.2 8.9 10.1 99 0.1 SSW 7 9 4 5 1021.3 1020.3 -
26/02:48am 10.6 10.4 10.4 99 0.1 S 2 9 1 5 1021.5 1020.5 -
26/02:30am 10.0 - 9.5 97 0.3 - - - - - 1021.7 1020.7 -
26/02:12am 10.8 11.0 10.5 98 0.2 CALM 0 0 0 0 1021.9 1020.9 17.8
26/02:00am 11.0 10.1 10.7 98 0.2 E 6 7 3 4 1022.1 1021.1 17.8
26/01:58am 11.0 10.1 10.7 98 0.2 E 6 7 3 4 1022.1 1021.1 17.8
26/01:38am 11.4 11.8 11.1 98 0.2 CALM 0 4 0 2 1022.3 1021.3 17.8
26/01:37am 11.4 11.8 11.1 98 0.2 CALM 0 4 0 2 1022.3 1021.3 17.8
26/01:34am 11.4 11.4 11.2 99 0.1 ENE 2 6 1 3 1022.3 1021.3 17.8
26/01:30am 11.6 11.3 11.4 99 0.1 ENE 4 7 2 4 1022.4 1021.4 17.8
26/01:23am 11.6 10.9 11.4 99 0.1 E 6 9 3 5 1022.4 1021.4 17.8
26/01:09am 11.7 10.8 11.4 98 0.2 SE 7 13 4 7 1022.6 1021.6 17.8
26/01:00am 11.5 10.5 11.0 97 0.3 SE 7 11 4 6 1022.8 1021.9 17.6
26/12:30am 12.2 11.4 11.6 96 0.3 ENE 7 13 4 7 1022.8 1021.9 17.6
26/12:04am 12.7 11.3 12.1 96 0.3 E 11 17 6 9 1023.3 1022.4 17.6
26/12:00am 12.7 11.6 12.1 96 0.3 ESE 9 17 5 9 1023.4 1022.5 17.6
 
Date/Time
EST
Temp
°C
App
Temp
°C
Dew
Point
°C
Rel
Hum
%
Delta-T
°C
Wind Press
QNH
hPa
Press
MSL
hPa
Rain since
9am
mm
Dir  Spd
km/h
Gust
km/h
Spd
kts
Gust
kts
25/11:53pm 12.9 11.6 12.6 98 0.2 SE 11 15 6 8 1023.7 1022.7 17.6
25/11:52pm 12.9 11.6 12.6 98 0.2 SE 11 15 6 8 1023.7 1022.7 17.6
25/11:30pm 12.8 10.0 12.6 99 0.1 S 19 26 10 14 1024.0 1023.0 17.6
25/11:25pm 12.7 9.7 12.5 99 0.1 SSW 20 26 11 14 1024.2 1023.2 17.6
25/11:00pm 11.7 10.8 11.2 97 0.3 S 7 9 4 5 1023.5 1022.6 17.6
25/10:30pm 12.0 10.5 11.8 99 0.1 SSE 11 13 6 7 1023.5 1022.6 17.6
25/10:00pm 12.2 11.4 11.7 97 0.3 N 7 9 4 5 1023.7 1022.7 17.6
25/09:30pm 12.8 11.8 12.2 96 0.3 ESE 9 15 5 8 1023.9 1022.9 17.6
25/09:00pm 13.3 12.0 12.4 94 0.5 SE 11 15 6 8 1024.0 1023.0 17.6
25/08:48pm 13.5 12.2 12.6 94 0.5 ESE 11 15 6 8 1024.0 1023.0 17.4
25/08:30pm 13.4 13.4 12.5 94 0.5 E 4 9 2 5 1024.2 1023.2 17.2
25/08:00pm 13.4 12.9 12.5 94 0.5 E 7 11 4 6 1023.9 1022.9 17.2
25/07:30pm 13.4 12.5 12.5 94 0.5 E 9 15 5 8 1023.7 1022.7 17.2
25/07:00pm 13.5 13.6 12.6 94 0.5 NNE 4 7 2 4 1023.0 1022.1 17.2
25/06:34pm 13.7 12.4 12.4 92 0.7 N 11 20 6 11 1022.4 1021.4 17.2
25/06:30pm 13.9 12.5 12.3 90 0.9 WNW 11 20 6 11 1022.4 1021.4 17.2
25/06:16pm 13.5 8.0 12.6 94 0.5 E 33 56 18 30 1020.6 1019.6 17.2
25/06:11pm 13.6 6.7 12.7 94 0.5 E 41 59 22 32 1020.2 1019.2 17.2
25/06:00pm 13.6 6.3 12.8 95 0.4 E 43 57 23 31 1020.1 1019.1 17.0
25/05:57pm 13.6 7.1 12.8 95 0.4 ESE 39 56 21 30 1020.2 1019.2 16.8
25/05:53pm 13.6 8.4 12.8 95 0.4 ESE 32 46 17 25 1020.7 1019.8 16.4
25/05:36pm 13.3 10.9 12.8 97 0.3 SE 17 28 9 15 1022.6 1021.6 15.0
25/05:30pm 13.2 11.6 12.7 97 0.3 SE 13 24 7 13 1022.4 1021.4 14.4
25/05:18pm 12.9 13.0 12.6 98 0.2 ESE 4 11 2 6 1022.7 1021.8 13.4
25/05:12pm 12.9 12.9 12.4 97 0.3 SSE 4 13 2 7 1022.7 1021.8 13.0
25/05:00pm 12.7 11.3 12.2 97 0.3 ESE 11 15 6 8 1022.4 1021.4 12.0
25/04:33pm 12.4 7.3 10.6 89 1.0 SSW 28 39 15 21 1022.7 1021.8 5.6
25/04:30pm 13.0 8.4 11.2 89 1.0 SSW 26 39 14 21 1022.7 1021.8 5.0
25/04:00pm 15.3 13.5 13.2 87 1.2 E 15 24 8 13 1021.1 1020.2 2.2
25/03:30pm 17.0 13.9 12.1 73 2.7 ESE 20 33 11 18 1020.2 1019.2 0.4
25/03:00pm 18.0 14.8 12.0 68 3.4 ESE 20 32 11 17 1020.1 1019.1 0.0
25/02:30pm 20.5 16.5 10.3 52 5.6 ESE 22 32 12 17 1020.2 1019.2 0.0
25/02:00pm 20.5 16.9 10.6 53 5.5 E 20 35 11 19 1020.4 1019.4 0.0
25/01:30pm 21.9 18.1 11.0 50 6.1 E 22 32 12 17 1020.9 1020.0 0.0
25/01:00pm 22.1 18.9 11.2 50 6.2 E 19 26 10 14 1021.4 1020.4 0.0
25/12:30pm 21.1 18.8 10.3 50 6.0 ENE 13 26 7 14 1022.0 1021.0 0.0
25/12:00pm 21.3 19.3 10.2 49 6.1 ENE 11 20 6 11 1022.7 1021.8 0.0
25/11:30am 20.8 19.0 10.9 53 5.5 ENE 11 19 6 10 1023.3 1022.4 0.0
25/11:00am 19.5 16.5 10.8 57 4.8 ESE 17 24 9 13 1024.1 1023.1 0.0
25/10:30am 20.0 17.6 12.7 63 4.2 ESE 17 24 9 13 1024.7 1023.8 0.0
25/10:00am 17.9 15.1 11.5 66 3.5 ESE 17 26 9 14 1024.9 1024.0 0.0
25/09:30am 16.3 13.8 11.2 72 2.8 ESE 15 19 8 10 1025.3 1024.4 0.0
25/09:24am 16.1 14.0 11.3 73 2.6 ESE 13 20 7 11 1025.4 1024.5 0.0
25/09:00am 16.4 14.2 12.0 75 2.4 SE 15 22 8 12 1025.3 1024.4 0.0
25/08:43am 15.6 13.2 11.4 76 2.3 ESE 15 22 8 12 1025.3 1024.4 0.0
25/08:30am 15.7 13.8 11.9 78 2.1 ESE 13 20 7 11 1025.2 1024.3 0.0
25/08:04am 14.9 12.6 11.7 81 1.8 SE 15 26 8 14 1025.1 1024.2 0.0
25/08:00am 14.8 12.5 11.6 81 1.7 SE 15 20 8 11 1025.0 1024.1 0.0
25/07:30am 14.0 12.4 11.7 86 1.3 SE 11 17 6 9 1024.9 1024.0 0.0
25/07:10am 14.0 12.1 11.9 87 1.2 SE 13 19 7 10 1024.4 1023.4 0.0
25/07:00am 14.0 12.9 11.9 87 1.1 SE 9 15 5 8 1024.3 1023.3 0.0
25/06:30am 13.1 11.2 11.8 92 0.7 SE 13 20 7 11 1023.9 1022.9 0.0
25/06:13am 12.9 10.6 11.8 93 0.6 SE 15 20 8 11 1023.8 1022.8 0.0
25/06:00am 12.8 10.9 11.7 93 0.6 SE 13 17 7 9 1023.7 1022.7 0.0
25/05:30am 12.8 11.2 11.5 92 0.7 ESE 11 17 6 9 1023.5 1022.6 0.0
25/05:00am 13.1 11.9 11.5 90 0.9 ESE 9 15 5 8 1023.2 1022.3 0.0
25/04:30am 13.2 11.6 11.6 90 0.9 ESE 11 17 6 9 1023.0 1022.1 0.0
25/04:12am 13.3 11.3 11.5 89 1.0 ESE 13 20 7 11 1023.0 1022.1 0.0
25/04:00am 13.5 11.9 11.4 87 1.1 ESE 11 19 6 10 1023.2 1022.3 0.0
25/03:30am 14.2 12.1 11.2 82 1.6 ESE 13 19 7 10 1023.1 1022.2 0.0
25/03:00am 14.3 12.6 11.1 81 1.7 ESE 11 17 6 9 1023.3 1022.4 0.0
25/02:30am 14.3 11.8 11.1 81 1.7 ESE 15 20 8 11 1023.2 1022.3 0.0
25/02:00am 14.4 11.9 11.2 81 1.7 ESE 15 22 8 12 1023.1 1022.2 0.0
25/01:30am 14.5 11.6 11.1 80 1.8 ESE 17 26 9 14 1023.2 1022.3 0.0
25/01:00am 14.7 11.5 11.1 79 1.9 ESE 19 30 10 16 1023.3 1022.4 0.0
25/12:30am 14.8 11.6 11.2 79 2.0 ESE 19 28 10 15 1023.8 1022.8 0.0
25/12:00am 14.7 11.8 11.1 79 1.9 ESE 17 24 9 13 1024.1 1023.1 0.0
 
Date/Time
EST
Temp
°C
App
Temp
°C
Dew
Point
°C
Rel
Hum
%
Delta-T
°C
Wind Press
QNH
hPa
Press
MSL
hPa
Rain since
9am
mm
Dir  Spd
km/h
Gust
km/h
Spd
kts
Gust
kts
24/11:30pm 14.9 11.6 10.9 77 2.2 ESE 19 28 10 15 1024.1 1023.1 0.0
24/11:00pm 15.2 11.7 11.0 76 2.3 ESE 20 35 11 19 1024.2 1023.2 0.0
24/10:30pm 15.2 11.9 11.0 76 2.3 ESE 19 32 10 17 1024.2 1023.2 0.0
24/10:00pm 15.1 11.9 11.1 77 2.2 ESE 19 30 10 16 1024.1 1023.1 0.0
24/09:30pm 15.0 12.1 11.0 77 2.2 ESE 17 30 9 16 1024.1 1023.1 0.0
24/09:00pm 15.1 12.1 10.7 75 2.4 ESE 17 22 9 12 1024.0 1023.0 0.0
24/08:30pm 15.4 11.9 10.2 71 2.8 ESE 19 26 10 14 1023.8 1022.8 0.0
24/08:00pm 15.7 12.2 10.2 70 2.9 ESE 19 28 10 15 1023.4 1022.5 0.0
24/07:30pm 16.3 12.7 10.4 68 3.2 ESE 20 30 11 16 1023.0 1022.1 0.0
24/07:00pm 17.8 14.2 10.4 62 4.0 ESE 20 32 11 17 1022.2 1021.2 0.0
24/06:30pm 19.3 14.7 9.5 53 5.3 E 24 32 13 17 1021.4 1020.4 0.0
24/06:00pm 20.2 16.1 8.8 48 6.1 E 20 33 11 18 1020.8 1019.9 0.0
24/05:30pm 21.6 18.0 6.7 38 7.8 ESE 15 24 8 13 1020.4 1019.4 0.0
24/05:00pm 22.5 18.9 6.7 36 8.2 ESE 15 22 8 12 1020.2 1019.2 0.0
24/04:30pm 23.2 19.3 6.9 35 8.6 ESE 17 26 9 14 1020.1 1019.1 0.0
24/04:00pm 22.5 18.7 5.9 34 8.5 SE 15 26 8 14 1020.0 1019.0 0.0
24/03:30pm 24.0 20.1 7.2 34 9.0 ESE 17 28 9 15 1020.1 1019.1 0.0
24/03:00pm 23.4 19.4 6.7 34 8.8 SE 17 24 9 13 1020.2 1019.2 0.0
24/02:30pm 23.0 19.0 6.7 35 8.6 SE 17 28 9 15 1020.6 1019.6 0.0
24/02:00pm 22.8 20.3 8.1 39 7.9 SE 11 19 6 10 1020.7 1019.8 0.0
24/01:30pm 22.6 19.7 8.3 40 7.7 ESE 13 20 7 11 1021.3 1020.3 0.0
24/01:00pm 23.3 21.1 9.3 41 7.7 SE 11 20 6 11 1021.6 1020.6 0.0
24/12:30pm 22.8 20.5 8.9 41 7.6 E 11 20 6 11 1022.1 1021.1 0.0
24/12:00pm 22.9 20.8 9.7 43 7.3 E 11 19 6 10 1022.7 1021.8 0.0
24/11:30am 22.2 19.5 9.0 43 7.2 ESE 13 19 7 10 1023.3 1022.4 0.0
24/11:00am 20.8 18.1 9.1 47 6.3 ESE 13 24 7 13 1023.8 1022.8 0.0
24/10:30am 22.1 19.8 10.6 48 6.4 ESE 13 20 7 11 1024.2 1023.2 0.0
24/10:00am 21.1 17.9 10.0 49 6.1 ESE 17 24 9 13 1024.5 1023.5 0.0
24/09:30am 19.8 17.9 10.5 55 5.1 NE 11 20 6 11 1024.6 1023.6 0.0
24/09:00am 18.9 16.5 10.2 57 4.7 E 13 24 7 13 1024.6 1023.6 0.0
24/08:30am 18.5 16.4 11.1 62 4.1 ENE 13 22 7 12 1024.5 1023.5 0.0
24/08:00am 17.9 16.4 11.9 68 3.4 E 11 15 6 8 1024.4 1023.4 0.0
24/07:30am 15.2 14.4 11.0 76 2.3 W 6 7 3 4 1024.2 1023.2 0.0
24/07:00am 12.2 11.1 9.8 85 1.2 S 6 7 3 4 1023.9 1022.9 0.0
24/06:30am 10.1 10.1 9.8 98 0.2 CALM 0 0 0 0 1023.7 1022.7 0.0
24/06:00am 7.6 6.7 6.1 90 0.7 CALM 0 0 0 0 1023.3 1022.4 0.0
24/05:30am 8.0 6.0 6.9 93 0.5 SSE 7 7 4 4 1023.1 1022.2 0.0
24/05:00am 7.7 6.7 5.8 88 0.9 CALM 0 0 0 0 1022.8 1021.9 0.0
24/04:30am 8.3 7.4 5.9 85 1.1 CALM 0 0 0 0 1022.4 1021.4 0.0
24/04:00am 9.4 7.6 7.3 87 1.0 SSE 6 7 3 4 1022.3 1021.3 0.0
24/03:30am 9.7 9.2 7.8 88 0.9 CALM 0 0 0 0 1022.2 1021.2 0.0
24/03:00am 9.5 9.0 7.9 90 0.8 CALM 0 0 0 0 1022.4 1021.4 0.0
24/02:30am 8.4 7.7 6.9 90 0.7 CALM 0 0 0 0 1022.5 1021.5 0.0
24/02:00am 9.0 7.2 7.3 89 0.8 SSE 6 7 3 4 1022.6 1021.6 0.0
24/01:30am 8.9 7.1 7.0 88 0.9 SE 6 7 3 4 1023.0 1022.1 0.0
24/01:00am 9.1 6.8 7.4 89 0.8 S 9 11 5 6 1023.2 1022.3 0.0
24/12:30am 10.0 7.9 6.7 80 1.6 ESE 7 9 4 5 1023.5 1022.6 0.0
24/12:00am 10.7 8.7 7.0 78 1.8 E 7 9 4 5 1023.8 1022.8 0.0
 
Date/Time
EST
Temp
°C
App
Temp
°C
Dew
Point
°C
Rel
Hum
%
Delta-T
°C
Wind Press
QNH
hPa
Press
MSL
hPa
Rain since
9am
mm
Dir  Spd
km/h
Gust
km/h
Spd
kts
Gust
kts
23/11:30pm 11.1 9.9 8.0 81 1.5 SSW 4 6 2 3 1024.0 1023.0 0.0
23/11:00pm 12.8 12.5 8.5 75 2.2 CALM 0 0 0 0 1023.9 1022.9 0.0
23/10:30pm 14.3 13.0 9.9 75 2.3 E 7 7 4 4 1023.8 1022.8 0.0
23/10:00pm 14.6 13.6 10.2 75 2.3 ENE 6 15 3 8 1023.5 1022.6 0.0
23/09:30pm 15.2 14.2 10.4 73 2.6 ENE 6 9 3 5 1023.3 1022.4 0.0
23/09:00pm 16.1 15.2 10.6 70 3.0 NE 6 19 3 10 1023.3 1022.4 0.0
23/08:30pm 16.7 15.6 10.5 67 3.4 NNE 7 15 4 8 1023.1 1022.2 0.0
23/08:00pm 18.1 16.0 11.0 63 3.9 ENE 13 19 7 10 1022.3 1021.3 0.0
23/07:30pm 19.2 17.1 11.0 59 4.6 ENE 13 20 7 11 1021.8 1020.8 0.0
23/07:00pm 20.1 17.9 10.8 55 5.2 ENE 13 20 7 11 1021.3 1020.3 0.0
23/06:30pm 19.2 16.3 1.7 31 8.1 ESE 6 9 3 5 1020.5 1019.5 0.0
23/06:00pm 22.3 19.4 1.3 25 9.9 SSE 6 7 3 4 1020.2 1019.2 0.0
23/05:30pm 24.0 20.9 1.6 23 10.8 S 7 9 4 5 1019.9 1018.9 0.0
23/05:00pm 25.5 21.1 0.2 19 12.0 SSW 13 17 7 9 1019.8 1018.8 0.0
23/04:30pm 26.2 21.9 0.8 19 12.2 SSE 13 20 7 11 1019.8 1018.8 0.0
23/04:00pm 26.6 21.7 1.8 20 12.2 SSW 17 28 9 15 1019.5 1018.5 0.0
23/03:30pm 26.8 23.4 2.0 20 12.3 SSW 9 17 5 9 1019.5 1018.5 0.0
23/03:00pm 27.4 22.7 3.2 21 12.2 SW 17 28 9 15 1019.8 1018.8 0.0
23/02:30pm 26.8 22.6 4.0 23 11.7 WSW 15 28 8 15 1020.1 1019.1 0.0
23/02:00pm 26.0 23.8 6.1 28 10.5 SSE 7 15 4 8 1020.5 1019.5 0.0
23/01:30pm 25.4 21.8 5.1 27 10.5 SSW 13 22 7 12 1020.9 1020.0 0.0
23/01:00pm 25.2 21.7 5.4 28 10.3 SSE 13 28 7 15 1021.4 1020.4 0.0
23/12:30pm 24.8 21.3 5.6 29 10.0 SSW 13 19 7 10 1022.2 1021.2 0.0
23/12:00pm 24.7 22.7 6.4 31 9.6 ESE 6 11 3 6 1022.9 1022.0 0.0
23/11:30am 23.8 21.6 7.8 36 8.6 WNW 9 13 5 7 1023.7 1022.7 0.0
23/11:00am 22.4 19.7 7.4 38 7.9 SSW 11 20 6 11 1024.1 1023.1 0.0
23/10:30am 21.4 19.9 9.0 45 6.7 WNW 7 13 4 7 1024.6 1023.6 0.0
23/10:00am 20.6 18.7 9.2 48 6.1 NNW 9 15 5 8 1025.2 1024.3 0.0
23/09:30am 20.1 18.9 10.2 53 5.4 S 7 11 4 6 1025.5 1024.6 0.0
23/09:00am 18.8 18.1 10.1 57 4.7 E 4 11 2 6 1025.9 1025.0 0.0

Other Formats:

Comma delimited format used in spreadsheet applications
http://www.bom.gov.au/fwo/IDQ60801/IDQ60801.94549.axf

JavaScript Object Notation format (JSON) in row-major order
http://www.bom.gov.au/fwo/IDQ60801/IDQ60801.94549.json